sensor_id;sensor_type;location;lat;lon;timestamp;P1;durP1;ratioP1;P2;durP2;ratioP2
56718;SDS011;42597;40.636;0.278;2022-08-01T00:00:41;8.27;;;6.82;;
56718;SDS011;42597;40.636;0.278;2022-08-01T00:03:06;9.07;;;7.18;;
56718;SDS011;42597;40.636;0.278;2022-08-01T00:05:32;8.25;;;6.60;;
56718;SDS011;42597;40.636;0.278;2022-08-01T00:07:58;11.32;;;8.73;;
56718;SDS011;42597;40.636;0.278;2022-08-01T00:10:23;10.90;;;7.95;;
56718;SDS011;42597;40.636;0.278;2022-08-01T00:12:49;10.13;;;8.02;;
56718;SDS011;42597;40.636;0.278;2022-08-01T00:15:16;9.77;;;7.90;;
56718;SDS011;42597;40.636;0.278;2022-08-01T00:17:42;12.68;;;9.57;;
56718;SDS011;42597;40.636;0.278;2022-08-01T00:20:10;10.85;;;7.90;;
56718;SDS011;42597;40.636;0.278;2022-08-01T00:22:37;10.10;;;8.23;;
56718;SDS011;42597;40.636;0.278;2022-08-01T00:25:03;11.82;;;7.18;;
56718;SDS011;42597;40.636;0.278;2022-08-01T00:27:30;12.80;;;9.20;;
56718;SDS011;42597;40.636;0.278;2022-08-01T00:29:56;11.88;;;8.70;;
56718;SDS011;42597;40.636;0.278;2022-08-01T00:32:22;9.75;;;8.68;;
56718;SDS011;42597;40.636;0.278;2022-08-01T00:34:47;9.75;;;8.82;;
56718;SDS011;42597;40.636;0.278;2022-08-01T00:37:13;14.15;;;8.38;;
56718;SDS011;42597;40.636;0.278;2022-08-01T00:39:39;12.27;;;8.30;;
56718;SDS011;42597;40.636;0.278;2022-08-01T00:42:10;10.55;;;8.77;;
56718;SDS011;42597;40.636;0.278;2022-08-01T00:44:37;10.27;;;7.68;;
56718;SDS011;42597;40.636;0.278;2022-08-01T00:47:04;11.20;;;8.88;;
56718;SDS011;42597;40.636;0.278;2022-08-01T00:49:30;10.45;;;8.95;;
56718;SDS011;42597;40.636;0.278;2022-08-01T00:51:55;10.43;;;8.63;;
56718;SDS011;42597;40.636;0.278;2022-08-01T00:54:23;9.68;;;8.57;;
56718;SDS011;42597;40.636;0.278;2022-08-01T00:56:50;10.80;;;9.68;;
56718;SDS011;42597;40.636;0.278;2022-08-01T00:59:17;10.23;;;8.90;;
56718;SDS011;42597;40.636;0.278;2022-08-01T01:01:43;11.95;;;9.35;;
56718;SDS011;42597;40.636;0.278;2022-08-01T01:04:09;11.05;;;9.32;;
56718;SDS011;42597;40.636;0.278;2022-08-01T01:17:21;9.88;;;8.25;;
56718;SDS011;42597;40.636;0.278;2022-08-01T01:19:54;16.98;;;9.55;;
56718;SDS011;42597;40.636;0.278;2022-08-01T01:22:27;9.07;;;7.60;;
56718;SDS011;42597;40.636;0.278;2022-08-01T01:31:15;9.65;;;8.43;;
56718;SDS011;42597;40.636;0.278;2022-08-01T01:33:45;10.98;;;8.77;;
56718;SDS011;42597;40.636;0.278;2022-08-01T01:36:13;9.15;;;7.70;;
56718;SDS011;42597;40.636;0.278;2022-08-01T01:38:42;9.48;;;7.43;;
56718;SDS011;42597;40.636;0.278;2022-08-01T01:41:11;9.82;;;7.63;;
56718;SDS011;42597;40.636;0.278;2022-08-01T01:43:37;12.43;;;7.93;;
56718;SDS011;42597;40.636;0.278;2022-08-01T01:46:05;8.38;;;7.32;;
56718;SDS011;42597;40.636;0.278;2022-08-01T01:48:33;12.35;;;8.45;;
56718;SDS011;42597;40.636;0.278;2022-08-01T01:51:00;9.55;;;8.23;;
56718;SDS011;42597;40.636;0.278;2022-08-01T01:53:28;10.20;;;8.77;;
56718;SDS011;42597;40.636;0.278;2022-08-01T01:55:56;9.98;;;7.93;;
56718;SDS011;42597;40.636;0.278;2022-08-01T01:58:23;9.77;;;8.40;;
56718;SDS011;42597;40.636;0.278;2022-08-01T02:00:51;10.05;;;8.20;;
56718;SDS011;42597;40.636;0.278;2022-08-01T02:03:18;10.60;;;7.90;;
56718;SDS011;42597;40.636;0.278;2022-08-01T02:05:46;9.23;;;7.30;;
56718;SDS011;42597;40.636;0.278;2022-08-01T02:08:12;10.65;;;8.82;;
56718;SDS011;42597;40.636;0.278;2022-08-01T02:10:40;10.68;;;9.20;;
56718;SDS011;42597;40.636;0.278;2022-08-01T02:13:27;10.73;;;9.27;;
56718;SDS011;42597;40.636;0.278;2022-08-01T02:15:52;13.80;;;8.63;;
56718;SDS011;42597;40.636;0.278;2022-08-01T02:18:18;11.43;;;10.02;;
56718;SDS011;42597;40.636;0.278;2022-08-01T02:20:44;12.73;;;9.55;;
56718;SDS011;42597;40.636;0.278;2022-08-01T02:23:11;9.52;;;8.55;;
56718;SDS011;42597;40.636;0.278;2022-08-01T02:25:50;14.77;;;9.70;;
56718;SDS011;42597;40.636;0.278;2022-08-01T02:28:22;11.93;;;9.23;;
56718;SDS011;42597;40.636;0.278;2022-08-01T02:30:53;9.20;;;8.30;;
56718;SDS011;42597;40.636;0.278;2022-08-01T02:33:27;11.93;;;10.25;;
56718;SDS011;42597;40.636;0.278;2022-08-01T02:36:01;10.90;;;9.30;;
56718;SDS011;42597;40.636;0.278;2022-08-01T02:38:28;11.35;;;9.45;;
56718;SDS011;42597;40.636;0.278;2022-08-01T02:40:58;10.55;;;9.15;;
56718;SDS011;42597;40.636;0.278;2022-08-01T02:43:28;9.85;;;8.88;;
56718;SDS011;42597;40.636;0.278;2022-08-01T02:45:56;9.30;;;8.32;;
56718;SDS011;42597;40.636;0.278;2022-08-01T02:48:25;10.20;;;9.20;;
56718;SDS011;42597;40.636;0.278;2022-08-01T02:50:52;12.15;;;9.77;;
56718;SDS011;42597;40.636;0.278;2022-08-01T02:53:20;9.57;;;7.57;;
56718;SDS011;42597;40.636;0.278;2022-08-01T02:55:49;11.05;;;9.02;;
56718;SDS011;42597;40.636;0.278;2022-08-01T02:58:16;13.65;;;8.73;;
56718;SDS011;42597;40.636;0.278;2022-08-01T03:00:44;9.75;;;8.32;;
56718;SDS011;42597;40.636;0.278;2022-08-01T03:03:10;9.00;;;8.10;;
56718;SDS011;42597;40.636;0.278;2022-08-01T03:05:38;11.20;;;9.48;;
56718;SDS011;42597;40.636;0.278;2022-08-01T03:08:05;12.13;;;8.57;;
56718;SDS011;42597;40.636;0.278;2022-08-01T03:10:33;11.27;;;8.50;;
56718;SDS011;42597;40.636;0.278;2022-08-01T03:13:03;9.05;;;7.88;;
56718;SDS011;42597;40.636;0.278;2022-08-01T03:15:31;13.55;;;8.90;;
56718;SDS011;42597;40.636;0.278;2022-08-01T03:18:00;10.50;;;8.90;;
56718;SDS011;42597;40.636;0.278;2022-08-01T03:20:29;11.63;;;8.82;;
56718;SDS011;42597;40.636;0.278;2022-08-01T03:22:57;11.52;;;9.27;;
56718;SDS011;42597;40.636;0.278;2022-08-01T03:25:26;12.65;;;9.70;;
56718;SDS011;42597;40.636;0.278;2022-08-01T03:27:54;11.27;;;9.00;;
56718;SDS011;42597;40.636;0.278;2022-08-01T03:30:23;11.32;;;10.00;;
56718;SDS011;42597;40.636;0.278;2022-08-01T03:32:51;12.63;;;9.18;;
56718;SDS011;42597;40.636;0.278;2022-08-01T03:35:17;10.52;;;8.07;;
56718;SDS011;42597;40.636;0.278;2022-08-01T03:37:44;16.58;;;10.35;;
56718;SDS011;42597;40.636;0.278;2022-08-01T03:40:17;11.77;;;9.68;;
56718;SDS011;42597;40.636;0.278;2022-08-01T03:42:48;9.38;;;8.48;;
56718;SDS011;42597;40.636;0.278;2022-08-01T03:45:25;10.48;;;9.43;;
56718;SDS011;42597;40.636;0.278;2022-08-01T03:47:54;10.40;;;9.45;;
56718;SDS011;42597;40.636;0.278;2022-08-01T03:50:24;10.68;;;9.07;;
56718;SDS011;42597;40.636;0.278;2022-08-01T03:52:51;16.10;;;10.07;;
56718;SDS011;42597;40.636;0.278;2022-08-01T03:55:19;11.77;;;8.85;;
56718;SDS011;42597;40.636;0.278;2022-08-01T03:57:46;12.40;;;8.82;;
56718;SDS011;42597;40.636;0.278;2022-08-01T04:00:13;10.43;;;9.10;;
56718;SDS011;42597;40.636;0.278;2022-08-01T04:02:43;12.52;;;10.43;;
56718;SDS011;42597;40.636;0.278;2022-08-01T04:05:13;11.73;;;9.90;;
56718;SDS011;42597;40.636;0.278;2022-08-01T04:07:40;14.20;;;10.13;;
56718;SDS011;42597;40.636;0.278;2022-08-01T04:10:10;12.50;;;10.18;;
56718;SDS011;42597;40.636;0.278;2022-08-01T04:12:36;10.35;;;8.13;;
56718;SDS011;42597;40.636;0.278;2022-08-01T04:15:02;11.32;;;8.90;;
56718;SDS011;42597;40.636;0.278;2022-08-01T04:17:29;10.57;;;9.25;;
56718;SDS011;42597;40.636;0.278;2022-08-01T04:19:54;15.43;;;9.32;;
56718;SDS011;42597;40.636;0.278;2022-08-01T04:22:20;10.52;;;9.43;;
56718;SDS011;42597;40.636;0.278;2022-08-01T04:24:47;11.90;;;9.60;;
56718;SDS011;42597;40.636;0.278;2022-08-01T04:27:16;12.10;;;9.10;;
56718;SDS011;42597;40.636;0.278;2022-08-01T04:29:47;10.05;;;8.85;;
56718;SDS011;42597;40.636;0.278;2022-08-01T04:32:15;11.55;;;10.35;;
56718;SDS011;42597;40.636;0.278;2022-08-01T04:34:46;11.95;;;9.35;;
56718;SDS011;42597;40.636;0.278;2022-08-01T04:37:13;10.65;;;9.55;;
56718;SDS011;42597;40.636;0.278;2022-08-01T04:39:43;10.15;;;8.98;;
56718;SDS011;42597;40.636;0.278;2022-08-01T04:42:11;11.25;;;9.43;;
56718;SDS011;42597;40.636;0.278;2022-08-01T04:44:38;13.63;;;10.52;;
56718;SDS011;42597;40.636;0.278;2022-08-01T04:47:04;12.82;;;11.30;;
56718;SDS011;42597;40.636;0.278;2022-08-01T04:49:32;12.40;;;11.15;;
56718;SDS011;42597;40.636;0.278;2022-08-01T04:54:27;16.83;;;10.52;;
56718;SDS011;42597;40.636;0.278;2022-08-01T04:56:53;12.35;;;9.00;;
56718;SDS011;42597;40.636;0.278;2022-08-01T04:59:25;16.70;;;10.98;;
56718;SDS011;42597;40.636;0.278;2022-08-01T05:02:11;12.10;;;10.65;;
56718;SDS011;42597;40.636;0.278;2022-08-01T05:04:38;13.70;;;11.00;;
56718;SDS011;42597;40.636;0.278;2022-08-01T05:07:05;12.57;;;9.63;;
56718;SDS011;42597;40.636;0.278;2022-08-01T05:09:31;13.50;;;10.57;;
56718;SDS011;42597;40.636;0.278;2022-08-01T05:11:58;10.80;;;9.75;;
56718;SDS011;42597;40.636;0.278;2022-08-01T05:14:25;12.20;;;10.73;;
56718;SDS011;42597;40.636;0.278;2022-08-01T05:16:51;11.57;;;9.90;;
56718;SDS011;42597;40.636;0.278;2022-08-01T05:19:17;11.10;;;9.80;;
56718;SDS011;42597;40.636;0.278;2022-08-01T05:21:43;13.50;;;10.68;;
56718;SDS011;42597;40.636;0.278;2022-08-01T05:24:09;14.10;;;11.38;;
56718;SDS011;42597;40.636;0.278;2022-08-01T05:26:35;15.45;;;11.82;;
56718;SDS011;42597;40.636;0.278;2022-08-01T05:29:00;10.50;;;8.93;;
56718;SDS011;42597;40.636;0.278;2022-08-01T05:31:26;11.85;;;10.40;;
56718;SDS011;42597;40.636;0.278;2022-08-01T05:33:51;12.15;;;10.95;;
56718;SDS011;42597;40.636;0.278;2022-08-01T05:36:17;13.63;;;10.07;;
56718;SDS011;42597;40.636;0.278;2022-08-01T05:38:42;13.88;;;9.65;;
56718;SDS011;42597;40.636;0.278;2022-08-01T05:41:08;14.57;;;11.43;;
56718;SDS011;42597;40.636;0.278;2022-08-01T05:43:35;15.00;;;11.55;;
56718;SDS011;42597;40.636;0.278;2022-08-01T05:46:00;14.38;;;11.38;;
56718;SDS011;42597;40.636;0.278;2022-08-01T05:48:26;12.38;;;11.15;;
56718;SDS011;42597;40.636;0.278;2022-08-01T05:50:52;15.18;;;11.80;;
56718;SDS011;42597;40.636;0.278;2022-08-01T05:53:18;14.75;;;11.30;;
56718;SDS011;42597;40.636;0.278;2022-08-01T05:55:44;16.20;;;11.27;;
56718;SDS011;42597;40.636;0.278;2022-08-01T05:58:09;15.13;;;13.27;;
56718;SDS011;42597;40.636;0.278;2022-08-01T06:00:35;11.38;;;10.18;;
56718;SDS011;42597;40.636;0.278;2022-08-01T06:03:00;11.07;;;9.13;;
56718;SDS011;42597;40.636;0.278;2022-08-01T06:05:26;20.27;;;10.82;;
56718;SDS011;42597;40.636;0.278;2022-08-01T06:07:51;10.77;;;9.65;;
56718;SDS011;42597;40.636;0.278;2022-08-01T06:10:17;10.73;;;9.02;;
56718;SDS011;42597;40.636;0.278;2022-08-01T06:12:43;12.40;;;8.85;;
56718;SDS011;42597;40.636;0.278;2022-08-01T06:15:09;13.85;;;8.88;;
56718;SDS011;42597;40.636;0.278;2022-08-01T06:17:34;12.13;;;10.48;;
56718;SDS011;42597;40.636;0.278;2022-08-01T06:20:00;9.98;;;8.15;;
56718;SDS011;42597;40.636;0.278;2022-08-01T06:22:25;15.90;;;9.02;;
56718;SDS011;42597;40.636;0.278;2022-08-01T06:24:51;12.35;;;8.48;;
56718;SDS011;42597;40.636;0.278;2022-08-01T06:27:17;13.55;;;8.85;;
56718;SDS011;42597;40.636;0.278;2022-08-01T06:29:43;10.57;;;9.48;;
56718;SDS011;42597;40.636;0.278;2022-08-01T06:32:08;11.02;;;8.77;;
56718;SDS011;42597;40.636;0.278;2022-08-01T06:34:34;11.70;;;9.43;;
56718;SDS011;42597;40.636;0.278;2022-08-01T06:37:00;12.15;;;9.68;;
56718;SDS011;42597;40.636;0.278;2022-08-01T06:39:26;13.20;;;9.20;;
56718;SDS011;42597;40.636;0.278;2022-08-01T06:41:51;11.77;;;8.88;;
56718;SDS011;42597;40.636;0.278;2022-08-01T06:44:17;11.65;;;8.52;;
56718;SDS011;42597;40.636;0.278;2022-08-01T06:46:42;10.45;;;8.80;;
56718;SDS011;42597;40.636;0.278;2022-08-01T06:49:07;10.77;;;9.57;;
56718;SDS011;42597;40.636;0.278;2022-08-01T06:51:33;9.50;;;8.15;;
56718;SDS011;42597;40.636;0.278;2022-08-01T06:53:58;10.20;;;9.18;;
56718;SDS011;42597;40.636;0.278;2022-08-01T06:56:24;16.67;;;11.75;;
56718;SDS011;42597;40.636;0.278;2022-08-01T06:58:50;12.43;;;10.05;;
56718;SDS011;42597;40.636;0.278;2022-08-01T07:01:16;11.60;;;8.77;;
56718;SDS011;42597;40.636;0.278;2022-08-01T07:03:41;12.73;;;9.52;;
56718;SDS011;42597;40.636;0.278;2022-08-01T07:06:07;12.60;;;9.27;;
56718;SDS011;42597;40.636;0.278;2022-08-01T07:08:32;10.60;;;8.85;;
56718;SDS011;42597;40.636;0.278;2022-08-01T07:10:58;15.93;;;9.95;;
56718;SDS011;42597;40.636;0.278;2022-08-01T07:13:27;8.90;;;7.57;;
56718;SDS011;42597;40.636;0.278;2022-08-01T07:15:55;12.65;;;7.93;;
56718;SDS011;42597;40.636;0.278;2022-08-01T07:18:22;12.23;;;9.68;;
56718;SDS011;42597;40.636;0.278;2022-08-01T07:20:48;11.82;;;9.18;;
56718;SDS011;42597;40.636;0.278;2022-08-01T07:23:14;12.05;;;9.43;;
56718;SDS011;42597;40.636;0.278;2022-08-01T07:25:39;13.27;;;9.13;;
56718;SDS011;42597;40.636;0.278;2022-08-01T07:28:05;11.80;;;9.82;;
56718;SDS011;42597;40.636;0.278;2022-08-01T07:30:31;9.55;;;8.55;;
56718;SDS011;42597;40.636;0.278;2022-08-01T07:32:56;11.75;;;9.35;;
56718;SDS011;42597;40.636;0.278;2022-08-01T07:35:22;11.77;;;8.90;;
56718;SDS011;42597;40.636;0.278;2022-08-01T07:37:48;10.73;;;9.57;;
56718;SDS011;42597;40.636;0.278;2022-08-01T07:40:13;11.43;;;8.95;;
56718;SDS011;42597;40.636;0.278;2022-08-01T07:42:39;11.25;;;9.95;;
56718;SDS011;42597;40.636;0.278;2022-08-01T07:45:08;11.30;;;8.27;;
56718;SDS011;42597;40.636;0.278;2022-08-01T07:47:34;10.13;;;8.45;;
56718;SDS011;42597;40.636;0.278;2022-08-01T07:50:00;12.88;;;9.75;;
56718;SDS011;42597;40.636;0.278;2022-08-01T07:52:28;12.00;;;9.57;;
56718;SDS011;42597;40.636;0.278;2022-08-01T07:54:55;11.88;;;9.45;;
56718;SDS011;42597;40.636;0.278;2022-08-01T07:57:21;14.93;;;10.30;;
56718;SDS011;42597;40.636;0.278;2022-08-01T07:59:48;18.70;;;10.07;;
56718;SDS011;42597;40.636;0.278;2022-08-01T08:02:13;18.27;;;8.77;;
56718;SDS011;42597;40.636;0.278;2022-08-01T08:04:39;11.70;;;8.65;;
56718;SDS011;42597;40.636;0.278;2022-08-01T08:07:04;9.35;;;8.45;;
56718;SDS011;42597;40.636;0.278;2022-08-01T08:09:30;13.85;;;9.13;;
56718;SDS011;42597;40.636;0.278;2022-08-01T08:11:55;13.18;;;7.63;;
56718;SDS011;42597;40.636;0.278;2022-08-01T08:14:21;11.20;;;8.35;;
56718;SDS011;42597;40.636;0.278;2022-08-01T08:16:47;17.33;;;9.60;;
56718;SDS011;42597;40.636;0.278;2022-08-01T08:19:13;11.63;;;8.48;;
56718;SDS011;42597;40.636;0.278;2022-08-01T08:21:39;10.85;;;8.05;;
56718;SDS011;42597;40.636;0.278;2022-08-01T08:24:06;8.82;;;7.70;;
56718;SDS011;42597;40.636;0.278;2022-08-01T08:26:44;10.15;;;8.45;;
56718;SDS011;42597;40.636;0.278;2022-08-01T08:29:10;13.63;;;8.90;;
56718;SDS011;42597;40.636;0.278;2022-08-01T08:31:36;12.90;;;9.25;;
56718;SDS011;42597;40.636;0.278;2022-08-01T08:34:01;10.95;;;8.40;;
56718;SDS011;42597;40.636;0.278;2022-08-01T08:36:27;11.35;;;9.40;;
56718;SDS011;42597;40.636;0.278;2022-08-01T08:38:52;15.00;;;9.43;;
56718;SDS011;42597;40.636;0.278;2022-08-01T08:41:18;10.93;;;9.45;;
56718;SDS011;42597;40.636;0.278;2022-08-01T08:43:44;9.85;;;8.82;;
56718;SDS011;42597;40.636;0.278;2022-08-01T08:46:09;13.27;;;9.82;;
56718;SDS011;42597;40.636;0.278;2022-08-01T08:48:37;10.85;;;8.93;;
56718;SDS011;42597;40.636;0.278;2022-08-01T08:51:04;16.10;;;9.32;;
56718;SDS011;42597;40.636;0.278;2022-08-01T08:53:34;9.98;;;8.23;;
56718;SDS011;42597;40.636;0.278;2022-08-01T08:56:01;17.55;;;9.20;;
56718;SDS011;42597;40.636;0.278;2022-08-01T08:58:27;14.00;;;9.70;;
56718;SDS011;42597;40.636;0.278;2022-08-01T09:00:53;11.15;;;9.90;;
56718;SDS011;42597;40.636;0.278;2022-08-01T09:03:20;13.85;;;10.07;;
56718;SDS011;42597;40.636;0.278;2022-08-01T09:05:45;16.65;;;9.73;;
56718;SDS011;42597;40.636;0.278;2022-08-01T09:08:11;10.73;;;9.15;;
56718;SDS011;42597;40.636;0.278;2022-08-01T09:10:37;13.63;;;9.05;;
56718;SDS011;42597;40.636;0.278;2022-08-01T09:13:10;13.18;;;10.13;;
56718;SDS011;42597;40.636;0.278;2022-08-01T09:15:47;11.00;;;9.77;;
56718;SDS011;42597;40.636;0.278;2022-08-01T09:23:40;14.03;;;9.40;;
56718;SDS011;42597;40.636;0.278;2022-08-01T09:26:09;11.02;;;9.88;;
56718;SDS011;42597;40.636;0.278;2022-08-01T09:28:36;12.77;;;10.63;;
56718;SDS011;42597;40.636;0.278;2022-08-01T09:31:10;16.02;;;10.57;;
56718;SDS011;42597;40.636;0.278;2022-08-01T09:33:55;15.63;;;11.25;;
56718;SDS011;42597;40.636;0.278;2022-08-01T09:36:23;15.55;;;10.27;;
56718;SDS011;42597;40.636;0.278;2022-08-01T09:41:16;12.85;;;10.15;;
56718;SDS011;42597;40.636;0.278;2022-08-01T09:43:52;15.98;;;10.57;;
56718;SDS011;42597;40.636;0.278;2022-08-01T09:46:18;14.75;;;11.60;;
56718;SDS011;42597;40.636;0.278;2022-08-01T09:48:57;15.32;;;10.63;;
56718;SDS011;42597;40.636;0.278;2022-08-01T09:51:36;13.00;;;10.98;;
56718;SDS011;42597;40.636;0.278;2022-08-01T09:54:03;12.60;;;11.30;;
56718;SDS011;42597;40.636;0.278;2022-08-01T09:56:40;12.75;;;10.63;;
56718;SDS011;42597;40.636;0.278;2022-08-01T09:59:07;11.55;;;10.35;;
56718;SDS011;42597;40.636;0.278;2022-08-01T10:01:49;14.90;;;11.27;;
56718;SDS011;42597;40.636;0.278;2022-08-01T10:04:17;13.05;;;11.38;;
56718;SDS011;42597;40.636;0.278;2022-08-01T10:06:47;17.67;;;11.85;;
56718;SDS011;42597;40.636;0.278;2022-08-01T10:09:26;15.80;;;12.50;;
56718;SDS011;42597;40.636;0.278;2022-08-01T10:11:56;18.38;;;13.63;;
56718;SDS011;42597;40.636;0.278;2022-08-01T10:14:22;18.85;;;13.23;;
56718;SDS011;42597;40.636;0.278;2022-08-01T10:16:51;17.75;;;12.02;;
56718;SDS011;42597;40.636;0.278;2022-08-01T10:19:18;21.50;;;13.30;;
56718;SDS011;42597;40.636;0.278;2022-08-01T10:21:47;17.05;;;13.02;;
56718;SDS011;42597;40.636;0.278;2022-08-01T10:24:15;14.35;;;12.88;;
56718;SDS011;42597;40.636;0.278;2022-08-01T10:26:42;14.13;;;12.73;;
56718;SDS011;42597;40.636;0.278;2022-08-01T10:29:09;14.07;;;12.45;;
56718;SDS011;42597;40.636;0.278;2022-08-01T10:31:36;14.18;;;12.75;;
56718;SDS011;42597;40.636;0.278;2022-08-01T10:34:02;26.35;;;14.55;;
56718;SDS011;42597;40.636;0.278;2022-08-01T10:36:29;19.38;;;11.82;;
56718;SDS011;42597;40.636;0.278;2022-08-01T10:38:56;16.83;;;12.90;;
56718;SDS011;42597;40.636;0.278;2022-08-01T10:41:22;16.02;;;14.15;;
56718;SDS011;42597;40.636;0.278;2022-08-01T10:43:49;15.73;;;12.90;;
56718;SDS011;42597;40.636;0.278;2022-08-01T10:46:17;16.83;;;15.13;;
56718;SDS011;42597;40.636;0.278;2022-08-01T10:48:58;17.25;;;13.73;;
56718;SDS011;42597;40.636;0.278;2022-08-01T10:51:27;18.75;;;14.80;;
56718;SDS011;42597;40.636;0.278;2022-08-01T10:53:54;26.58;;;15.95;;
56718;SDS011;42597;40.636;0.278;2022-08-01T10:56:20;18.48;;;12.15;;
56718;SDS011;42597;40.636;0.278;2022-08-01T10:58:47;21.90;;;14.77;;
56718;SDS011;42597;40.636;0.278;2022-08-01T11:06:51;20.55;;;16.58;;
56718;SDS011;42597;40.636;0.278;2022-08-01T11:12:05;20.55;;;16.70;;
56718;SDS011;42597;40.636;0.278;2022-08-01T11:30:45;15.70;;;14.20;;
56718;SDS011;42597;40.636;0.278;2022-08-01T11:33:18;18.67;;;14.15;;
56718;SDS011;42597;40.636;0.278;2022-08-01T11:41:22;15.38;;;13.82;;
56718;SDS011;42597;40.636;0.278;2022-08-01T11:52:09;17.80;;;13.20;;
56718;SDS011;42597;40.636;0.278;2022-08-01T11:54:41;15.48;;;12.98;;
56718;SDS011;42597;40.636;0.278;2022-08-01T11:57:12;18.35;;;14.65;;
56718;SDS011;42597;40.636;0.278;2022-08-01T11:59:59;18.92;;;13.32;;
56718;SDS011;42597;40.636;0.278;2022-08-01T12:02:28;15.70;;;12.20;;
56718;SDS011;42597;40.636;0.278;2022-08-01T12:05:02;13.98;;;12.10;;
56718;SDS011;42597;40.636;0.278;2022-08-01T12:07:33;20.83;;;12.75;;
56718;SDS011;42597;40.636;0.278;2022-08-01T12:10:04;14.50;;;13.05;;
56718;SDS011;42597;40.636;0.278;2022-08-01T12:12:33;14.25;;;12.27;;
56718;SDS011;42597;40.636;0.278;2022-08-01T12:15:01;18.35;;;11.80;;
56718;SDS011;42597;40.636;0.278;2022-08-01T12:20:04;15.75;;;13.15;;
56718;SDS011;42597;40.636;0.278;2022-08-01T12:22:32;15.15;;;8.25;;
56718;SDS011;42597;40.636;0.278;2022-08-01T12:27:51;15.02;;;12.80;;
56718;SDS011;42597;40.636;0.278;2022-08-01T12:30:18;18.33;;;12.32;;
56718;SDS011;42597;40.636;0.278;2022-08-01T12:32:47;15.70;;;11.05;;
56718;SDS011;42597;40.636;0.278;2022-08-01T12:37:44;12.88;;;10.65;;
56718;SDS011;42597;40.636;0.278;2022-08-01T12:40:12;12.90;;;11.23;;
56718;SDS011;42597;40.636;0.278;2022-08-01T12:42:43;10.43;;;9.35;;
56718;SDS011;42597;40.636;0.278;2022-08-01T12:45:13;11.25;;;9.55;;
56718;SDS011;42597;40.636;0.278;2022-08-01T12:47:40;10.60;;;9.35;;
56718;SDS011;42597;40.636;0.278;2022-08-01T12:50:08;12.85;;;10.18;;
56718;SDS011;42597;40.636;0.278;2022-08-01T12:52:37;10.55;;;9.55;;
56718;SDS011;42597;40.636;0.278;2022-08-01T12:55:04;11.80;;;9.23;;
56718;SDS011;42597;40.636;0.278;2022-08-01T12:57:34;11.70;;;9.45;;
56718;SDS011;42597;40.636;0.278;2022-08-01T13:02:35;10.75;;;8.05;;
56718;SDS011;42597;40.636;0.278;2022-08-01T13:05:02;11.40;;;8.18;;
56718;SDS011;42597;40.636;0.278;2022-08-01T13:10:37;13.27;;;10.00;;
56718;SDS011;42597;40.636;0.278;2022-08-01T13:13:01;11.30;;;8.40;;
56718;SDS011;42597;40.636;0.278;2022-08-01T13:15:32;10.90;;;7.38;;
56718;SDS011;42597;40.636;0.278;2022-08-01T13:21:08;9.53;;;6.73;;
56718;SDS011;42597;40.636;0.278;2022-08-01T13:23:35;12.05;;;8.10;;
56718;SDS011;42597;40.636;0.278;2022-08-01T13:26:03;11.52;;;7.20;;
56718;SDS011;42597;40.636;0.278;2022-08-01T13:28:29;10.57;;;7.22;;
56718;SDS011;42597;40.636;0.278;2022-08-01T13:31:00;11.98;;;7.13;;
56718;SDS011;42597;40.636;0.278;2022-08-01T13:33:42;10.32;;;7.20;;
56718;SDS011;42597;40.636;0.278;2022-08-01T13:36:12;11.13;;;7.50;;
56718;SDS011;42597;40.636;0.278;2022-08-01T13:38:38;8.77;;;6.82;;
56718;SDS011;42597;40.636;0.278;2022-08-01T13:41:23;8.48;;;7.05;;
56718;SDS011;42597;40.636;0.278;2022-08-01T13:43:48;10.75;;;6.70;;
56718;SDS011;42597;40.636;0.278;2022-08-01T13:46:14;10.77;;;6.72;;
56718;SDS011;42597;40.636;0.278;2022-08-01T13:48:39;8.98;;;7.22;;
56718;SDS011;42597;40.636;0.278;2022-08-01T13:51:05;10.30;;;7.03;;
56718;SDS011;42597;40.636;0.278;2022-08-01T13:53:30;7.45;;;6.13;;
56718;SDS011;42597;40.636;0.278;2022-08-01T13:55:56;9.43;;;6.68;;
56718;SDS011;42597;40.636;0.278;2022-08-01T13:58:21;17.55;;;7.45;;
56718;SDS011;42597;40.636;0.278;2022-08-01T14:00:47;11.52;;;7.40;;
56718;SDS011;42597;40.636;0.278;2022-08-01T14:03:13;11.13;;;6.68;;
56718;SDS011;42597;40.636;0.278;2022-08-01T14:05:38;10.38;;;7.13;;
56718;SDS011;42597;40.636;0.278;2022-08-01T14:08:04;12.10;;;8.38;;
56718;SDS011;42597;40.636;0.278;2022-08-01T14:10:31;8.40;;;6.28;;
56718;SDS011;42597;40.636;0.278;2022-08-01T14:12:57;14.38;;;8.68;;
56718;SDS011;42597;40.636;0.278;2022-08-01T14:15:23;27.33;;;8.02;;
56718;SDS011;42597;40.636;0.278;2022-08-01T14:17:49;11.30;;;6.97;;
56718;SDS011;42597;40.636;0.278;2022-08-01T14:20:14;13.10;;;6.63;;
56718;SDS011;42597;40.636;0.278;2022-08-01T14:22:40;7.47;;;5.85;;
56718;SDS011;42597;40.636;0.278;2022-08-01T14:25:06;15.32;;;7.75;;
56718;SDS011;42597;40.636;0.278;2022-08-01T14:27:32;11.80;;;7.18;;
56718;SDS011;42597;40.636;0.278;2022-08-01T14:30:01;13.00;;;6.43;;
56718;SDS011;42597;40.636;0.278;2022-08-01T14:32:28;15.10;;;6.70;;
56718;SDS011;42597;40.636;0.278;2022-08-01T14:34:54;14.07;;;6.80;;
56718;SDS011;42597;40.636;0.278;2022-08-01T14:37:20;14.73;;;6.82;;
56718;SDS011;42597;40.636;0.278;2022-08-01T14:39:46;13.02;;;6.78;;
56718;SDS011;42597;40.636;0.278;2022-08-01T14:42:11;9.52;;;6.50;;
56718;SDS011;42597;40.636;0.278;2022-08-01T14:44:37;10.73;;;7.38;;
56718;SDS011;42597;40.636;0.278;2022-08-01T14:47:02;20.52;;;6.88;;
56718;SDS011;42597;40.636;0.278;2022-08-01T14:49:28;17.67;;;6.97;;
56718;SDS011;42597;40.636;0.278;2022-08-01T14:51:54;13.35;;;7.10;;
56718;SDS011;42597;40.636;0.278;2022-08-01T14:54:19;14.30;;;8.30;;
56718;SDS011;42597;40.636;0.278;2022-08-01T14:56:45;9.88;;;7.63;;
56718;SDS011;42597;40.636;0.278;2022-08-01T14:59:10;10.32;;;7.25;;
56718;SDS011;42597;40.636;0.278;2022-08-01T15:01:35;10.45;;;6.78;;
56718;SDS011;42597;40.636;0.278;2022-08-01T15:04:01;13.00;;;7.88;;
56718;SDS011;42597;40.636;0.278;2022-08-01T15:06:26;19.67;;;8.68;;
56718;SDS011;42597;40.636;0.278;2022-08-01T15:08:53;18.02;;;8.15;;
56718;SDS011;42597;40.636;0.278;2022-08-01T15:11:18;10.35;;;7.13;;
56718;SDS011;42597;40.636;0.278;2022-08-01T15:13:44;11.65;;;8.23;;
56718;SDS011;42597;40.636;0.278;2022-08-01T15:16:09;11.18;;;7.90;;
56718;SDS011;42597;40.636;0.278;2022-08-01T15:18:35;8.77;;;7.13;;
56718;SDS011;42597;40.636;0.278;2022-08-01T15:21:01;15.40;;;8.50;;
56718;SDS011;42597;40.636;0.278;2022-08-01T15:23:26;10.27;;;7.05;;
56718;SDS011;42597;40.636;0.278;2022-08-01T15:25:52;14.20;;;9.02;;
56718;SDS011;42597;40.636;0.278;2022-08-01T15:28:17;14.80;;;8.63;;
56718;SDS011;42597;40.636;0.278;2022-08-01T15:30:44;12.82;;;7.93;;
56718;SDS011;42597;40.636;0.278;2022-08-01T15:33:10;14.35;;;7.93;;
56718;SDS011;42597;40.636;0.278;2022-08-01T15:35:35;20.00;;;8.52;;
56718;SDS011;42597;40.636;0.278;2022-08-01T15:38:01;9.93;;;8.93;;
56718;SDS011;42597;40.636;0.278;2022-08-01T15:40:27;9.95;;;8.30;;
56718;SDS011;42597;40.636;0.278;2022-08-01T15:42:53;10.85;;;8.20;;
56718;SDS011;42597;40.636;0.278;2022-08-01T15:45:18;10.32;;;9.20;;
56718;SDS011;42597;40.636;0.278;2022-08-01T15:47:45;11.48;;;8.75;;
56718;SDS011;42597;40.636;0.278;2022-08-01T15:50:11;18.67;;;8.95;;
56718;SDS011;42597;40.636;0.278;2022-08-01T15:52:36;33.45;;;9.45;;
56718;SDS011;42597;40.636;0.278;2022-08-01T15:55:02;18.63;;;9.25;;
56718;SDS011;42597;40.636;0.278;2022-08-01T15:57:28;23.75;;;9.90;;